航空気象通報

ウインドサーファーのための航空気象通報による風予報です。

3/30-4/1の航空気象通報

2016年03月30日 23時02分28秒 | TAF

羽田空港
TAF RJTT 301108Z 3012/3118 29010KT 9999 FEW030
BECMG 3013/3015 35010KT
BECMG 3100/3103 12006KT
BECMG 3103/3106 18013KT
BECMG 3112/3115 36005KT
日本時間30日21-22時:290度から10ノットの風
22-24時:風が変化
31日00-09時:350度から10ノットの風
09-12時:風が変化
12時:120度から6ノットの風
12-15時:風が変化
15-21時:180度から13ノットの風
21-24時:風が変化
1日00-03時:360度から5ノットの風

静岡空港
TAF RJNS 301105Z 3012/3118 27012KT 9999 FEW030 SCT050
BECMG 3100/3103 16010KT
BECMG 3109/3112 27010KT
日本時間30日21時-31日09時:270度から12ノットの風
09-12時:風が変化
12-18時:160度から10ノットの風
18-21時:風が変化
21時-1日03時:270度から10ノットの風

福岡空港
TAF RJFF 301106Z 3012/3118 16006KT 9999 FEW030
TEMPO 3021/3024 4000 BR
BECMG 3103/3106 33006KT
BECMG 3112/3115 13003KT
日本時間30日21時-31日12時:160度から6ノットの風
12-15時:風が変化
15-21時:330度から6ノットの風
21-24時:風が変化
1日00-03時:130度から3ノットの風

那覇空港
TAF ROAH 301105Z 3012/3118 16006KT 9999 FEW030 SCT045
BECMG 3115/3118 28011KT
TEMPO 3115/3118 4000 SHRA
日本時間30日21時-31日24時:160度から6ノットの風
1日00-03時:280度から11ノットの風

但し、1日00-03時の間:ときどき

石垣空港
TAF ROIG 301111Z 3012/3118 15007KT 9999 FEW025 BKN045
TEMPO 3109/3112 4000 SHRA FEW006 BKN008 BKN015
TEMPO 3112/3115 3000 +SHRA FEW006 BKN008 BKN015 FEW020CB
BECMG 3112/3115 11006KT
TEMPO 3115/3118 4000 SHRA FEW006 BKN008 BKN015
日本時間30日21時-31日21時:150度から7ノットの風
21-24時:風が変化
1日00-03時:110度から6ノットの風

但し、31日18時-1日03時の間:ときどき

マウイのカフルイ空港
PHOG 301122Z 3012/3112 VRB05KT P6SM SCT025 SCT050
FM302000 33012G19KT P6SM FEW030 SCT050
FM310400 03007KT P6SM FEW030 SCT050 AMD LTD TO VIS AND WIND TIL 301600
ハワイ時間30日02-10時:風向不定5ノットの風
10-18時:330度から12ノット、突風19ノット
18時-31日02時:030度から7ノットの風

サイパン空港
TAF PGSN 301120Z 3012/3112 06011KT P6SM VCSH SCT024 BKN110
マリアナ時間30日22時-31日22時:060度から11ノットの風

コメント

3/28-3/30の航空気象通報

2016年03月29日 00時18分19秒 | TAF

羽田空港
TAF RJTT 281106Z 2812/2918 36006KT 9999 FEW015 BKN030
TEMPO 2812/2814 4000 -TSRA BR FEW005 BKN008 FEW020CB
BECMG 2900/2903 12005KT
BECMG 2903/2906 20016KT
日本時間28日21時-29日09時:360度から6ノットの風
09-12時:風が変化
12時:120度から5ノットの風
12-15時:風が変化
15時-30日03時:200度から16ノットの風

但し、28日21-23時の間:ときどき

静岡空港
TAF RJNS 281108Z 2812/2918 31006KT 9999 FEW030
BECMG 2822/2824 16008KT
BECMG 2903/2906 22010KT
BECMG 2909/2912 28010KT
日本時間28日21時-29日07時:310度から6ノットの風
07-09時:風が変化
09-12時:160度から8ノットの風
12-15時:風が変化
15-18時:220度から10ノットの風
18-21時:風が変化
21時-30日03時:280度から5ノットの風

福岡空港
TAF RJFF 281108Z 2812/2918 30005KT 9999 FEW040
BECMG 2812/2814 16007KT
BECMG 2903/2906 29008KT
BECMG 2909/2912 16007KT
日本時間28日21時:300度から5ノットの風
21-23時:風が変化
23時-29日12時:160度から7ノットの風
12-15時:風が変化
15-18時:290度から8ノットの風
18-21時:風が変化
21時-30日03時:160度から7ノットの風

那覇空港
TAF ROAH 281105Z 2812/2918 07004KT 9999 FEW045
BECMG 2900/2903 15010KT
日本時間28日21時-29日09時:070度から4ノットの風
09-12時:風が変化
12時-30日03時:150度から10ノットの風

石垣空港
TAF ROIG 281107Z 2812/2918 09008KT 9999 FEW045
BECMG 2903/2906 14006KT
日本時間28日21時-29日12時:090度から8ノットの風
12-15時:風が変化
15時-30日03時:140度から6ノットの風

マウイのカフルイ空港
PHOG 281121Z 2812/2912 15005KT P6SM FEW035
FM282000 21012KT P6SM SCT035 SCT070
FM290600 21015KT P6SM BKN035
ハワイ時間28日02-10時:150度から5ノットの風
10-20時:210度から12ノットの風
20時-29日02時:210度から15ノットの風

サイパン空港
TAF PGSN 281133Z 2812/2912 08010KT P6SM VCSH SCT020 SCT050
FM282200 08014KT P6SM VCSH SCT020 SCT050
マリアナ時間28日22時-29日08時:080度から10ノットの風
08-22時:080度から14ノットの風

コメント

3/27-3/29の航空気象通報

2016年03月27日 23時06分12秒 | TAF

羽田空港
TAF RJTT 271109Z 2712/2818 10010KT 9999 FEW020 BKN050
BECMG 2716/2718 34006KT
TEMPO 2800/2803 4000 -SHRA BR FEW005 BKN008
BECMG 2803/2806 09008KT
TEMPO 2809/2812 4000 TSRA BR FEW005 BKN008 FEW015CB
BECMG 2812/2815 34008KT
日本時間27日21時-28日01時:100度から10ノットの風
01-03時:風が変化
03-12時:340度から6ノットの風
12-15時:風が変化
15-21時:090度から8ノットの風
21-24時:風が変化
29日00-03時:340度から8ノットの風

但し、28日09-12時の間:ときどき
但し、28日18-21時の間:ときどき

静岡空港
TAF RJNS 271105Z 2712/2818 30004KT 9999 FEW015 BKN030
TEMPO 2721/2724 4000 TSRA BR FEW005 BKN008 FEW020CB
BECMG 2800/2803 14008KT
BECMG 2806/2809 30005KT
日本時間27日21時-28日09時:300度から4ノットの風
09-12時:風が変化
12-15時:140度から10ノットの風
15-18時:風が変化
18時-29日03時:300度から5ノットの風

但し、28日06-09時の間:ときどき

福岡空港
TAF RJFF 271106Z 2712/2818 16005KT 9999 FEW030 SCT045
BECMG 2800/2803 30010KT
BECMG 2809/2812 15010KT
日本時間27日21時-28日09時:160度から5ノットの風
09-12時:風が変化
12-18時:300度から10ノットの風
18-21時:風が変化
21時-29日03時:150度から10ノットの風

那覇空港
TAF ROAH 271106Z 2712/2818 35010KT 9999 FEW035 SCT045
BECMG 2809/2812 07006KT
日本時間27日21時-28日18時:350度から10ノットの風
18-21時:風が変化
21時-29日03時:070度から6ノットの風

石垣空港
TAF ROIG 271108Z 2712/2818 01010KT 9999 FEW035 SCT045
BECMG 2812/2815 08010KT
日本時間27日21時-28日21時:010度から10ノットの風
21-24時:風が変化
29日00-03時:080度から10ノットの風

マウイのカフルイ空港
PHOG 271121Z 2712/2812 VRB03KT P6SM FEW025 SCT045
FM272200 34012KT P6SM FEW045 SCT070
FM280600 06006KT P6SM FEW045 AMD LTD TO VIS AND WIND TIL 271600
ハワイ時間27日02-12時:風向不定3ノットの風
12-20時:340度から12ノットの風
20時-28日02時:060度から6ノットの風

サイパン空港
TAF PGSN 271128Z 2712/2812 08011KT P6SM VCSH SCT020 SCT050
マリアナ時間27日22時-29日22時:080度から11ノットの風

コメント

3/26-3/28の航空気象通報

2016年03月26日 23時21分09秒 | TAF

羽田空港
TAF RJTT 261105Z 2612/2718 03012KT 9999 FEW015 BKN030
BECMG 2703/2706 08012KT
日本時間26日21時-27日12時:030度から12ノットの風
12-15時:風が変化
15時-28日03時:080度から12ノットの風

静岡空港
TAF RJNS 261105Z 2612/2718 30005KT 9999 FEW020 SCT030
BECMG 2700/2703 22010KT
BECMG 2709/2712 34004KT
TEMPO 2715/2718 3000 SHRA BR FEW003 BKN005
日本時間26日21時-27日09時:300度から5ノットの風
09-12時:風が変化
12-18時:220度から10ノットの風
18-21時:風が変化
21時-28日03時:340度から4ノットの風

但し、28日00-03時の間:ときどき

福岡空港
TAF RJFF 261109Z 2612/2718 30005KT 9999 FEW020 BKN045
TEMPO 2612/2615 4000 -TSRA BR FEW010 SCT020 FEW025CB BKN030
BECMG 2614/2616 16005KT
BECMG 2700/2703 29011KT
BECMG 2712/2715 19003KT
日本時間26日21-23時:300度から5ノットの風
23時-27日01時:風が変化
01-09時:160度から5ノットの風
09-12時:風が変化
12-21時:290度から11ノットの風
21-24時:風が変化
28日00-03時:190度から3ノットの風

但し、26日21-24時の間:ときどき

那覇空港
TAF ROAH 261106Z 2612/2718 01012KT 9999 SCT030 BKN045
日本時間26日21時-28日03時:010度から12ノットの風

石垣空港
TAF ROIG 261108Z 2612/2718 02010KT 9999 FEW030 SCT045
日本時間26日21時-28日03時:020度から10ノットの風

マウイのカフルイ空港
PHOG 261140Z 2612/2712 19004KT P6SM SCT060 BKN200
FM261400 36010KT P6SM FEW060 BKN200
FM262100 13008KT P6SM VCSH FEW030 SCT050 AMD LTD TO VIS AND WIND TIL 261600
ハワイ時間26日02-04時:190度から4ノットの風
04-11時:360度から10ノットの風

11時-27日02時:130度から8ノットの風

サイパン空港
TAF PGSN 261120Z 2612/2712 05008KT P6SM FEW025 FEW040
FM270000 08011KT P6SM VCSH SCT025 SCT050
マリアナ時間26日22時-27日10時:050度から8ノットの風
10-22時:080度から11ノットの風

コメント

3/25-3/27の航空気象通報

2016年03月25日 23時01分40秒 | TAF
羽田空港
TAF RJTT 251107Z 2512/2618 02010KT 9999 FEW030 BKN050
BECMG 2600/2603 09010KT
BECMG 2612/2615 03012KT
日本時間25日21時-26日09時:020度から10ノットの風
09-12時:風が変化
12-21時:090度から10ノットの風
21-24時:風が変化
27日00-03時:030度から12ノットの風


静岡空港
TAF RJNS 251105Z 2512/2618 32004KT 9999 FEW020 SCT030
BECMG 2522/2524 12006KT
BECMG 2609/2612 32004KT
日本時間25日21時-26日07時:320度から4ノットの風
07-09時:風が変化
09-18時:120度から6ノットの風
18-21時:風が変化
21時-26日03時:320度から4ノットの風


福岡空港
TAF RJFF 251108Z 2512/2618 03005KT 9999 FEW030
BECMG 2513/2515 15005KT
BECMG 2603/2606 30011KT
TEMPO 2609/2612 4000 TSRA BR FEW010 SCT020 FEW025CB BKN030
BECMG 2612/2615 15006KT
日本時間25日21-22時:030度から5ノットの風
22-24時:風が変化
26日00-12時:150度から5ノットの風
12-15時:風が変化
15-21時:300度から11ノットの風
21-24時:風が変化
27日00-03時:150度から6ノットの風

但し、26日18-21時の間:ときどき

那覇空港
TAF ROAH 251107Z 2512/2618 01012KT 9999 FEW030 BKN040
日本時間25日21時-27日03時:010度から12ノットの風


新石垣空港
TAF ROIG 251112Z 2512/2618 01012KT 9999 FEW020 BKN040
日本時間25日21時-27日03時:010度から12ノットの風


マウイのカフルイ空港
PHOG 251140Z 2512/2612 13005KT P6SM FEW030 BKN050
FM252000 02010KT P6SM VCSH SCT030 BKN050
FM260600 13005KT P6SM VCSH SCT030 BKN050 AMD LTD TO VIS AND WIND TIL 251600
ハワイ時間25日02-10時:-30度から5ノットの風
10-20時:020度から10ノットの風
20時-26日02時:130度から5ノットの風


サイパン空港
TAF PGSN 251120Z 2512/2612 06010KT P6SM FEW025
マリアナ時間25日22時-26日22時:060度から10ノットの風
コメント